sensor_id;sensor_type;location;lat;lon;timestamp;P1;durP1;ratioP1;P2;durP2;ratioP2
19207;SDS011;9737;59.466;18.036;2023-04-07T00:00:06;4.53;;;3.42;;
19207;SDS011;9737;59.466;18.036;2023-04-07T00:02:36;4.53;;;3.20;;
19207;SDS011;9737;59.466;18.036;2023-04-07T00:05:04;5.55;;;3.83;;
19207;SDS011;9737;59.466;18.036;2023-04-07T00:07:32;4.75;;;3.58;;
19207;SDS011;9737;59.466;18.036;2023-04-07T00:10:14;5.45;;;3.95;;
19207;SDS011;9737;59.466;18.036;2023-04-07T00:12:41;5.13;;;3.95;;
19207;SDS011;9737;59.466;18.036;2023-04-07T00:15:09;5.82;;;3.83;;
19207;SDS011;9737;59.466;18.036;2023-04-07T00:17:39;4.63;;;3.92;;
19207;SDS011;9737;59.466;18.036;2023-04-07T00:20:07;7.45;;;4.60;;
19207;SDS011;9737;59.466;18.036;2023-04-07T00:22:35;5.38;;;3.90;;
19207;SDS011;9737;59.466;18.036;2023-04-07T00:25:04;6.07;;;4.07;;
19207;SDS011;9737;59.466;18.036;2023-04-07T00:27:32;5.70;;;4.10;;
19207;SDS011;9737;59.466;18.036;2023-04-07T00:30:00;6.18;;;4.30;;
19207;SDS011;9737;59.466;18.036;2023-04-07T00:32:28;7.20;;;4.07;;
19207;SDS011;9737;59.466;18.036;2023-04-07T00:34:57;5.90;;;3.90;;
19207;SDS011;9737;59.466;18.036;2023-04-07T00:37:27;5.75;;;4.30;;
19207;SDS011;9737;59.466;18.036;2023-04-07T00:39:55;5.68;;;4.10;;
19207;SDS011;9737;59.466;18.036;2023-04-07T00:42:24;7.35;;;4.22;;
19207;SDS011;9737;59.466;18.036;2023-04-07T00:44:52;4.63;;;3.65;;
19207;SDS011;9737;59.466;18.036;2023-04-07T00:47:20;4.47;;;3.72;;
19207;SDS011;9737;59.466;18.036;2023-04-07T00:49:48;4.53;;;3.55;;
19207;SDS011;9737;59.466;18.036;2023-04-07T00:52:17;7.95;;;4.20;;
19207;SDS011;9737;59.466;18.036;2023-04-07T00:54:52;4.47;;;3.70;;
19207;SDS011;9737;59.466;18.036;2023-04-07T00:57:20;5.13;;;3.75;;
19207;SDS011;9737;59.466;18.036;2023-04-07T00:59:49;4.60;;;3.85;;
19207;SDS011;9737;59.466;18.036;2023-04-07T01:02:18;6.65;;;3.88;;
19207;SDS011;9737;59.466;18.036;2023-04-07T01:04:50;5.13;;;4.07;;
19207;SDS011;9737;59.466;18.036;2023-04-07T01:07:26;6.03;;;4.18;;
19207;SDS011;9737;59.466;18.036;2023-04-07T01:10:00;5.25;;;3.78;;
19207;SDS011;9737;59.466;18.036;2023-04-07T01:12:33;6.25;;;3.70;;
19207;SDS011;9737;59.466;18.036;2023-04-07T01:15:07;5.40;;;4.05;;
19207;SDS011;9737;59.466;18.036;2023-04-07T01:17:37;4.93;;;3.67;;
19207;SDS011;9737;59.466;18.036;2023-04-07T01:20:11;4.50;;;3.47;;
19207;SDS011;9737;59.466;18.036;2023-04-07T01:22:44;5.72;;;3.90;;
19207;SDS011;9737;59.466;18.036;2023-04-07T01:25:21;5.03;;;3.80;;
19207;SDS011;9737;59.466;18.036;2023-04-07T01:27:57;5.22;;;4.05;;
19207;SDS011;9737;59.466;18.036;2023-04-07T01:30:39;5.95;;;4.25;;
19207;SDS011;9737;59.466;18.036;2023-04-07T01:33:09;5.65;;;4.10;;
19207;SDS011;9737;59.466;18.036;2023-04-07T01:35:38;7.68;;;4.13;;
19207;SDS011;9737;59.466;18.036;2023-04-07T01:38:08;4.88;;;3.88;;
19207;SDS011;9737;59.466;18.036;2023-04-07T01:40:37;4.95;;;3.70;;
19207;SDS011;9737;59.466;18.036;2023-04-07T01:43:06;5.75;;;3.90;;
19207;SDS011;9737;59.466;18.036;2023-04-07T01:45:35;5.70;;;3.75;;
19207;SDS011;9737;59.466;18.036;2023-04-07T01:48:06;5.57;;;3.63;;
19207;SDS011;9737;59.466;18.036;2023-04-07T01:50:35;6.60;;;4.22;;
19207;SDS011;9737;59.466;18.036;2023-04-07T01:53:04;5.53;;;3.97;;
19207;SDS011;9737;59.466;18.036;2023-04-07T01:55:34;6.43;;;4.10;;
19207;SDS011;9737;59.466;18.036;2023-04-07T01:58:05;5.50;;;3.95;;
19207;SDS011;9737;59.466;18.036;2023-04-07T02:00:33;5.10;;;3.50;;
19207;SDS011;9737;59.466;18.036;2023-04-07T02:03:04;6.18;;;4.30;;
19207;SDS011;9737;59.466;18.036;2023-04-07T02:05:38;5.93;;;3.78;;
19207;SDS011;9737;59.466;18.036;2023-04-07T02:08:07;6.03;;;4.18;;
19207;SDS011;9737;59.466;18.036;2023-04-07T02:10:36;6.00;;;4.03;;
19207;SDS011;9737;59.466;18.036;2023-04-07T02:13:06;6.72;;;4.47;;
19207;SDS011;9737;59.466;18.036;2023-04-07T02:15:36;6.28;;;4.30;;
19207;SDS011;9737;59.466;18.036;2023-04-07T02:18:05;6.15;;;4.18;;
19207;SDS011;9737;59.466;18.036;2023-04-07T02:20:38;8.32;;;4.78;;
19207;SDS011;9737;59.466;18.036;2023-04-07T02:23:07;8.57;;;4.78;;
19207;SDS011;9737;59.466;18.036;2023-04-07T02:25:35;7.43;;;4.38;;
19207;SDS011;9737;59.466;18.036;2023-04-07T02:30:33;5.80;;;4.25;;
19207;SDS011;9737;59.466;18.036;2023-04-07T02:33:02;7.82;;;4.50;;
19207;SDS011;9737;59.466;18.036;2023-04-07T02:35:31;6.47;;;4.45;;
19207;SDS011;9737;59.466;18.036;2023-04-07T02:37:59;7.00;;;4.43;;
19207;SDS011;9737;59.466;18.036;2023-04-07T02:40:28;6.70;;;4.57;;
19207;SDS011;9737;59.466;18.036;2023-04-07T02:42:56;8.38;;;5.00;;
19207;SDS011;9737;59.466;18.036;2023-04-07T02:45:31;6.88;;;4.47;;
19207;SDS011;9737;59.466;18.036;2023-04-07T02:47:59;7.60;;;4.50;;
19207;SDS011;9737;59.466;18.036;2023-04-07T02:50:27;8.95;;;5.47;;
19207;SDS011;9737;59.466;18.036;2023-04-07T02:52:56;8.60;;;5.10;;
19207;SDS011;9737;59.466;18.036;2023-04-07T02:55:24;8.27;;;5.28;;
19207;SDS011;9737;59.466;18.036;2023-04-07T02:57:52;9.15;;;5.45;;
19207;SDS011;9737;59.466;18.036;2023-04-07T03:00:20;9.70;;;5.60;;
19207;SDS011;9737;59.466;18.036;2023-04-07T03:02:48;9.73;;;5.65;;
19207;SDS011;9737;59.466;18.036;2023-04-07T03:05:16;10.90;;;5.97;;
19207;SDS011;9737;59.466;18.036;2023-04-07T03:07:44;8.52;;;5.10;;
19207;SDS011;9737;59.466;18.036;2023-04-07T03:10:13;11.32;;;6.15;;
19207;SDS011;9737;59.466;18.036;2023-04-07T03:12:41;11.07;;;5.72;;
19207;SDS011;9737;59.466;18.036;2023-04-07T03:15:10;9.63;;;5.90;;
19207;SDS011;9737;59.466;18.036;2023-04-07T03:17:37;10.52;;;5.85;;
19207;SDS011;9737;59.466;18.036;2023-04-07T03:20:06;10.95;;;6.53;;
19207;SDS011;9737;59.466;18.036;2023-04-07T03:22:34;10.70;;;6.18;;
19207;SDS011;9737;59.466;18.036;2023-04-07T03:25:03;11.43;;;6.28;;
19207;SDS011;9737;59.466;18.036;2023-04-07T03:27:32;12.75;;;6.32;;
19207;SDS011;9737;59.466;18.036;2023-04-07T03:30:00;11.05;;;6.63;;
19207;SDS011;9737;59.466;18.036;2023-04-07T03:32:28;13.02;;;6.95;;
19207;SDS011;9737;59.466;18.036;2023-04-07T03:34:56;12.32;;;6.00;;
19207;SDS011;9737;59.466;18.036;2023-04-07T03:37:24;12.70;;;6.75;;
19207;SDS011;9737;59.466;18.036;2023-04-07T03:39:52;13.00;;;6.30;;
19207;SDS011;9737;59.466;18.036;2023-04-07T03:42:20;10.55;;;6.35;;
19207;SDS011;9737;59.466;18.036;2023-04-07T03:44:50;11.32;;;6.70;;
19207;SDS011;9737;59.466;18.036;2023-04-07T03:47:18;12.30;;;6.80;;
19207;SDS011;9737;59.466;18.036;2023-04-07T03:49:46;13.70;;;7.18;;
19207;SDS011;9737;59.466;18.036;2023-04-07T03:52:13;13.70;;;6.68;;
19207;SDS011;9737;59.466;18.036;2023-04-07T03:54:42;14.98;;;7.35;;
19207;SDS011;9737;59.466;18.036;2023-04-07T03:57:10;13.80;;;6.85;;
19207;SDS011;9737;59.466;18.036;2023-04-07T03:59:37;11.50;;;6.53;;
19207;SDS011;9737;59.466;18.036;2023-04-07T04:02:07;15.20;;;7.03;;
19207;SDS011;9737;59.466;18.036;2023-04-07T04:04:35;13.95;;;6.80;;
19207;SDS011;9737;59.466;18.036;2023-04-07T04:07:03;12.15;;;6.70;;
19207;SDS011;9737;59.466;18.036;2023-04-07T04:09:31;13.98;;;7.60;;
19207;SDS011;9737;59.466;18.036;2023-04-07T04:11:59;12.88;;;7.05;;
19207;SDS011;9737;59.466;18.036;2023-04-07T04:14:27;15.75;;;7.70;;
19207;SDS011;9737;59.466;18.036;2023-04-07T04:16:55;14.43;;;7.50;;
19207;SDS011;9737;59.466;18.036;2023-04-07T04:19:24;15.27;;;7.93;;
19207;SDS011;9737;59.466;18.036;2023-04-07T04:21:52;16.85;;;7.80;;
19207;SDS011;9737;59.466;18.036;2023-04-07T04:24:20;15.45;;;7.93;;
19207;SDS011;9737;59.466;18.036;2023-04-07T04:26:48;17.20;;;8.07;;
19207;SDS011;9737;59.466;18.036;2023-04-07T04:29:16;15.35;;;7.78;;
19207;SDS011;9737;59.466;18.036;2023-04-07T04:31:44;16.90;;;8.38;;
19207;SDS011;9737;59.466;18.036;2023-04-07T04:34:12;13.18;;;7.55;;
19207;SDS011;9737;59.466;18.036;2023-04-07T04:36:41;15.60;;;8.20;;
19207;SDS011;9737;59.466;18.036;2023-04-07T04:39:09;14.70;;;7.45;;
19207;SDS011;9737;59.466;18.036;2023-04-07T04:41:37;14.38;;;7.68;;
19207;SDS011;9737;59.466;18.036;2023-04-07T04:44:05;13.50;;;7.07;;
19207;SDS011;9737;59.466;18.036;2023-04-07T04:46:33;17.17;;;8.20;;
19207;SDS011;9737;59.466;18.036;2023-04-07T04:49:01;16.05;;;7.55;;
19207;SDS011;9737;59.466;18.036;2023-04-07T04:51:29;14.70;;;7.55;;
19207;SDS011;9737;59.466;18.036;2023-04-07T04:53:59;14.20;;;7.30;;
19207;SDS011;9737;59.466;18.036;2023-04-07T04:56:29;13.02;;;7.43;;
19207;SDS011;9737;59.466;18.036;2023-04-07T04:58:57;12.25;;;6.18;;
19207;SDS011;9737;59.466;18.036;2023-04-07T05:01:25;11.52;;;6.40;;
19207;SDS011;9737;59.466;18.036;2023-04-07T05:03:53;10.90;;;6.00;;
19207;SDS011;9737;59.466;18.036;2023-04-07T05:06:21;11.20;;;5.93;;
19207;SDS011;9737;59.466;18.036;2023-04-07T05:08:49;10.30;;;6.15;;
19207;SDS011;9737;59.466;18.036;2023-04-07T05:11:18;10.40;;;5.90;;
19207;SDS011;9737;59.466;18.036;2023-04-07T05:13:47;10.93;;;6.00;;
19207;SDS011;9737;59.466;18.036;2023-04-07T05:16:15;9.85;;;5.57;;
19207;SDS011;9737;59.466;18.036;2023-04-07T05:18:43;9.35;;;5.63;;
19207;SDS011;9737;59.466;18.036;2023-04-07T05:21:11;10.68;;;5.60;;
19207;SDS011;9737;59.466;18.036;2023-04-07T05:23:39;8.70;;;4.93;;
19207;SDS011;9737;59.466;18.036;2023-04-07T05:26:07;8.32;;;5.15;;
19207;SDS011;9737;59.466;18.036;2023-04-07T05:28:37;7.53;;;4.80;;
19207;SDS011;9737;59.466;18.036;2023-04-07T05:31:05;7.15;;;4.50;;
19207;SDS011;9737;59.466;18.036;2023-04-07T05:33:33;7.95;;;4.75;;
19207;SDS011;9737;59.466;18.036;2023-04-07T05:36:01;7.80;;;4.90;;
19207;SDS011;9737;59.466;18.036;2023-04-07T05:38:29;7.03;;;4.45;;
19207;SDS011;9737;59.466;18.036;2023-04-07T05:40:57;7.40;;;4.82;;
19207;SDS011;9737;59.466;18.036;2023-04-07T05:43:25;5.25;;;3.67;;
19207;SDS011;9737;59.466;18.036;2023-04-07T05:45:55;5.40;;;3.80;;
19207;SDS011;9737;59.466;18.036;2023-04-07T05:48:23;6.30;;;4.35;;
19207;SDS011;9737;59.466;18.036;2023-04-07T05:50:51;5.22;;;4.10;;
19207;SDS011;9737;59.466;18.036;2023-04-07T05:53:19;5.55;;;3.90;;
19207;SDS011;9737;59.466;18.036;2023-04-07T05:55:46;6.53;;;3.83;;
19207;SDS011;9737;59.466;18.036;2023-04-07T05:58:14;5.60;;;3.67;;
19207;SDS011;9737;59.466;18.036;2023-04-07T06:00:43;4.90;;;3.58;;
19207;SDS011;9737;59.466;18.036;2023-04-07T06:03:12;5.28;;;3.65;;
19207;SDS011;9737;59.466;18.036;2023-04-07T06:05:40;4.60;;;3.40;;
19207;SDS011;9737;59.466;18.036;2023-04-07T06:08:10;5.32;;;3.42;;
19207;SDS011;9737;59.466;18.036;2023-04-07T06:10:38;4.15;;;3.28;;
19207;SDS011;9737;59.466;18.036;2023-04-07T06:13:07;4.40;;;3.17;;
19207;SDS011;9737;59.466;18.036;2023-04-07T06:15:35;4.53;;;3.55;;
19207;SDS011;9737;59.466;18.036;2023-04-07T06:18:02;6.18;;;3.20;;
19207;SDS011;9737;59.466;18.036;2023-04-07T06:20:32;4.18;;;3.45;;
19207;SDS011;9737;59.466;18.036;2023-04-07T06:23:01;4.65;;;3.00;;
19207;SDS011;9737;59.466;18.036;2023-04-07T06:25:29;4.32;;;3.40;;
19207;SDS011;9737;59.466;18.036;2023-04-07T06:27:56;3.65;;;3.00;;
19207;SDS011;9737;59.466;18.036;2023-04-07T06:30:24;3.45;;;2.70;;
19207;SDS011;9737;59.466;18.036;2023-04-07T06:32:52;4.28;;;3.30;;
19207;SDS011;9737;59.466;18.036;2023-04-07T06:35:21;4.88;;;3.30;;
19207;SDS011;9737;59.466;18.036;2023-04-07T06:37:50;4.47;;;3.10;;
19207;SDS011;9737;59.466;18.036;2023-04-07T06:40:18;4.55;;;3.30;;
19207;SDS011;9737;59.466;18.036;2023-04-07T06:42:46;4.13;;;2.90;;
19207;SDS011;9737;59.466;18.036;2023-04-07T06:45:14;4.82;;;3.40;;
19207;SDS011;9737;59.466;18.036;2023-04-07T06:47:42;5.82;;;3.10;;
19207;SDS011;9737;59.466;18.036;2023-04-07T06:50:10;3.58;;;2.92;;
19207;SDS011;9737;59.466;18.036;2023-04-07T06:52:38;2.95;;;2.65;;
19207;SDS011;9737;59.466;18.036;2023-04-07T06:55:08;3.70;;;2.80;;
19207;SDS011;9737;59.466;18.036;2023-04-07T06:57:36;3.67;;;2.80;;
19207;SDS011;9737;59.466;18.036;2023-04-07T07:00:05;2.95;;;2.65;;
19207;SDS011;9737;59.466;18.036;2023-04-07T07:02:34;2.88;;;2.58;;
19207;SDS011;9737;59.466;18.036;2023-04-07T07:05:02;2.83;;;2.53;;
19207;SDS011;9737;59.466;18.036;2023-04-07T07:07:31;3.33;;;2.83;;
19207;SDS011;9737;59.466;18.036;2023-04-07T07:09:59;3.40;;;2.63;;
19207;SDS011;9737;59.466;18.036;2023-04-07T07:12:28;2.72;;;2.30;;
19207;SDS011;9737;59.466;18.036;2023-04-07T07:14:57;3.55;;;2.85;;
19207;SDS011;9737;59.466;18.036;2023-04-07T07:17:26;3.08;;;2.50;;
19207;SDS011;9737;59.466;18.036;2023-04-07T07:19:54;2.97;;;2.60;;
19207;SDS011;9737;59.466;18.036;2023-04-07T07:22:22;3.00;;;2.60;;
19207;SDS011;9737;59.466;18.036;2023-04-07T07:24:50;2.50;;;2.28;;
19207;SDS011;9737;59.466;18.036;2023-04-07T07:27:18;2.50;;;2.30;;
19207;SDS011;9737;59.466;18.036;2023-04-07T07:29:47;2.88;;;2.60;;
19207;SDS011;9737;59.466;18.036;2023-04-07T07:32:15;2.88;;;2.55;;
19207;SDS011;9737;59.466;18.036;2023-04-07T07:34:43;2.58;;;2.25;;
19207;SDS011;9737;59.466;18.036;2023-04-07T07:37:11;2.63;;;2.42;;
19207;SDS011;9737;59.466;18.036;2023-04-07T07:39:39;3.05;;;2.47;;
19207;SDS011;9737;59.466;18.036;2023-04-07T07:42:07;2.75;;;2.47;;
19207;SDS011;9737;59.466;18.036;2023-04-07T07:44:35;2.60;;;2.40;;
19207;SDS011;9737;59.466;18.036;2023-04-07T07:47:04;3.22;;;2.58;;
19207;SDS011;9737;59.466;18.036;2023-04-07T07:49:32;2.50;;;2.30;;
19207;SDS011;9737;59.466;18.036;2023-04-07T07:52:01;3.60;;;2.67;;
19207;SDS011;9737;59.466;18.036;2023-04-07T07:54:29;4.25;;;2.60;;
19207;SDS011;9737;59.466;18.036;2023-04-07T07:56:57;2.75;;;2.50;;
19207;SDS011;9737;59.466;18.036;2023-04-07T07:59:25;3.50;;;2.58;;
19207;SDS011;9737;59.466;18.036;2023-04-07T08:01:53;2.92;;;2.53;;
19207;SDS011;9737;59.466;18.036;2023-04-07T08:04:23;2.60;;;2.33;;
19207;SDS011;9737;59.466;18.036;2023-04-07T08:06:51;3.40;;;2.50;;
19207;SDS011;9737;59.466;18.036;2023-04-07T08:09:20;3.00;;;2.40;;
19207;SDS011;9737;59.466;18.036;2023-04-07T08:11:48;2.60;;;2.30;;
19207;SDS011;9737;59.466;18.036;2023-04-07T08:14:16;2.80;;;2.50;;
19207;SDS011;9737;59.466;18.036;2023-04-07T08:16:44;2.83;;;2.30;;
19207;SDS011;9737;59.466;18.036;2023-04-07T08:19:13;2.67;;;2.45;;
19207;SDS011;9737;59.466;18.036;2023-04-07T08:21:42;2.63;;;2.30;;
19207;SDS011;9737;59.466;18.036;2023-04-07T08:24:10;3.05;;;2.60;;
19207;SDS011;9737;59.466;18.036;2023-04-07T08:26:38;3.20;;;2.85;;
19207;SDS011;9737;59.466;18.036;2023-04-07T08:29:06;2.75;;;2.45;;
19207;SDS011;9737;59.466;18.036;2023-04-07T08:31:33;4.30;;;2.50;;
19207;SDS011;9737;59.466;18.036;2023-04-07T08:34:01;3.05;;;2.42;;
19207;SDS011;9737;59.466;18.036;2023-04-07T08:36:29;2.55;;;2.35;;
19207;SDS011;9737;59.466;18.036;2023-04-07T08:38:59;3.10;;;2.63;;
19207;SDS011;9737;59.466;18.036;2023-04-07T08:41:28;2.70;;;2.50;;
19207;SDS011;9737;59.466;18.036;2023-04-07T08:44:00;3.10;;;2.70;;
19207;SDS011;9737;59.466;18.036;2023-04-07T08:46:28;2.78;;;2.47;;
19207;SDS011;9737;59.466;18.036;2023-04-07T08:48:56;2.70;;;2.50;;
19207;SDS011;9737;59.466;18.036;2023-04-07T08:51:26;2.70;;;2.25;;
19207;SDS011;9737;59.466;18.036;2023-04-07T08:53:57;2.53;;;2.33;;
19207;SDS011;9737;59.466;18.036;2023-04-07T08:56:31;2.60;;;2.38;;
19207;SDS011;9737;59.466;18.036;2023-04-07T08:59:00;2.58;;;2.38;;
19207;SDS011;9737;59.466;18.036;2023-04-07T09:01:28;2.50;;;2.30;;
19207;SDS011;9737;59.466;18.036;2023-04-07T09:03:57;2.78;;;2.40;;
19207;SDS011;9737;59.466;18.036;2023-04-07T09:06:26;2.42;;;2.22;;
19207;SDS011;9737;59.466;18.036;2023-04-07T09:08:57;2.20;;;2.00;;
19207;SDS011;9737;59.466;18.036;2023-04-07T09:11:27;2.63;;;2.42;;
19207;SDS011;9737;59.466;18.036;2023-04-07T09:13:56;2.50;;;2.30;;
19207;SDS011;9737;59.466;18.036;2023-04-07T09:16:24;2.90;;;2.47;;
19207;SDS011;9737;59.466;18.036;2023-04-07T09:18:56;2.58;;;2.38;;
19207;SDS011;9737;59.466;18.036;2023-04-07T09:21:24;2.40;;;2.20;;
19207;SDS011;9737;59.466;18.036;2023-04-07T09:23:53;2.35;;;2.15;;
19207;SDS011;9737;59.466;18.036;2023-04-07T09:26:21;2.25;;;2.05;;
19207;SDS011;9737;59.466;18.036;2023-04-07T09:28:53;2.50;;;2.30;;
19207;SDS011;9737;59.466;18.036;2023-04-07T09:31:21;2.58;;;2.20;;
19207;SDS011;9737;59.466;18.036;2023-04-07T09:33:51;2.30;;;2.10;;
19207;SDS011;9737;59.466;18.036;2023-04-07T09:36:20;2.40;;;2.20;;
19207;SDS011;9737;59.466;18.036;2023-04-07T09:38:52;2.35;;;2.10;;
19207;SDS011;9737;59.466;18.036;2023-04-07T09:41:20;2.50;;;2.20;;
19207;SDS011;9737;59.466;18.036;2023-04-07T09:43:55;2.72;;;2.40;;
19207;SDS011;9737;59.466;18.036;2023-04-07T09:46:24;2.70;;;2.30;;
19207;SDS011;9737;59.466;18.036;2023-04-07T09:49:00;2.60;;;2.40;;
19207;SDS011;9737;59.466;18.036;2023-04-07T09:51:31;2.40;;;2.20;;
19207;SDS011;9737;59.466;18.036;2023-04-07T09:53:59;2.40;;;2.20;;
19207;SDS011;9737;59.466;18.036;2023-04-07T09:56:27;2.50;;;2.30;;
19207;SDS011;9737;59.466;18.036;2023-04-07T09:58:58;2.20;;;2.00;;
19207;SDS011;9737;59.466;18.036;2023-04-07T10:01:27;2.40;;;2.20;;
19207;SDS011;9737;59.466;18.036;2023-04-07T10:03:55;3.78;;;2.88;;
19207;SDS011;9737;59.466;18.036;2023-04-07T10:06:24;3.00;;;2.58;;
19207;SDS011;9737;59.466;18.036;2023-04-07T10:08:52;2.78;;;2.40;;
19207;SDS011;9737;59.466;18.036;2023-04-07T10:11:20;3.45;;;2.40;;
19207;SDS011;9737;59.466;18.036;2023-04-07T10:13:49;2.42;;;2.22;;
19207;SDS011;9737;59.466;18.036;2023-04-07T10:16:19;2.22;;;2.10;;
19207;SDS011;9737;59.466;18.036;2023-04-07T10:18:49;2.58;;;2.15;;
19207;SDS011;9737;59.466;18.036;2023-04-07T10:21:20;2.20;;;2.00;;
19207;SDS011;9737;59.466;18.036;2023-04-07T10:23:51;2.63;;;2.20;;
19207;SDS011;9737;59.466;18.036;2023-04-07T10:26:26;2.38;;;2.05;;
19207;SDS011;9737;59.466;18.036;2023-04-07T10:28:59;2.65;;;2.28;;
19207;SDS011;9737;59.466;18.036;2023-04-07T10:31:32;2.97;;;2.38;;
19207;SDS011;9737;59.466;18.036;2023-04-07T10:34:00;2.90;;;2.45;;
19207;SDS011;9737;59.466;18.036;2023-04-07T10:36:29;2.50;;;2.30;;
19207;SDS011;9737;59.466;18.036;2023-04-07T10:41:47;2.50;;;2.30;;
19207;SDS011;9737;59.466;18.036;2023-04-07T10:47:16;3.05;;;2.53;;
19207;SDS011;9737;59.466;18.036;2023-04-07T10:53:04;4.15;;;2.83;;
19207;SDS011;9737;59.466;18.036;2023-04-07T10:55:35;3.33;;;2.83;;
19207;SDS011;9737;59.466;18.036;2023-04-07T10:58:18;3.83;;;2.70;;
19207;SDS011;9737;59.466;18.036;2023-04-07T11:04:00;4.18;;;2.65;;
19207;SDS011;9737;59.466;18.036;2023-04-07T11:06:30;3.65;;;2.75;;
19207;SDS011;9737;59.466;18.036;2023-04-07T11:08:58;3.40;;;2.50;;
19207;SDS011;9737;59.466;18.036;2023-04-07T11:11:36;3.40;;;2.53;;
19207;SDS011;9737;59.466;18.036;2023-04-07T11:14:06;4.68;;;2.88;;
19207;SDS011;9737;59.466;18.036;2023-04-07T11:16:38;2.80;;;2.40;;
19207;SDS011;9737;59.466;18.036;2023-04-07T11:19:12;2.92;;;2.60;;
19207;SDS011;9737;59.466;18.036;2023-04-07T11:21:40;3.20;;;2.33;;
19207;SDS011;9737;59.466;18.036;2023-04-07T11:24:08;6.55;;;2.40;;
19207;SDS011;9737;59.466;18.036;2023-04-07T11:26:36;3.00;;;2.70;;
19207;SDS011;9737;59.466;18.036;2023-04-07T11:29:05;5.57;;;3.22;;
19207;SDS011;9737;59.466;18.036;2023-04-07T11:31:34;4.45;;;3.15;;
19207;SDS011;9737;59.466;18.036;2023-04-07T11:34:03;3.20;;;2.90;;
19207;SDS011;9737;59.466;18.036;2023-04-07T11:36:33;4.50;;;3.03;;
19207;SDS011;9737;59.466;18.036;2023-04-07T11:39:16;4.43;;;3.08;;
19207;SDS011;9737;59.466;18.036;2023-04-07T11:41:45;5.47;;;3.65;;
19207;SDS011;9737;59.466;18.036;2023-04-07T11:44:14;3.72;;;3.00;;
19207;SDS011;9737;59.466;18.036;2023-04-07T11:46:51;5.97;;;3.65;;
19207;SDS011;9737;59.466;18.036;2023-04-07T11:49:20;5.00;;;3.47;;
19207;SDS011;9737;59.466;18.036;2023-04-07T11:51:56;5.32;;;3.40;;
19207;SDS011;9737;59.466;18.036;2023-04-07T11:54:26;4.85;;;3.17;;
19207;SDS011;9737;59.466;18.036;2023-04-07T11:56:54;4.22;;;3.10;;
19207;SDS011;9737;59.466;18.036;2023-04-07T11:59:22;5.03;;;3.28;;
19207;SDS011;9737;59.466;18.036;2023-04-07T12:01:51;4.47;;;3.50;;
19207;SDS011;9737;59.466;18.036;2023-04-07T12:04:23;5.28;;;3.60;;
19207;SDS011;9737;59.466;18.036;2023-04-07T12:06:52;4.57;;;3.67;;
19207;SDS011;9737;59.466;18.036;2023-04-07T12:09:24;6.43;;;4.32;;
19207;SDS011;9737;59.466;18.036;2023-04-07T12:11:57;6.25;;;4.22;;
19207;SDS011;9737;59.466;18.036;2023-04-07T12:14:26;4.75;;;3.50;;
19207;SDS011;9737;59.466;18.036;2023-04-07T12:16:54;4.88;;;3.78;;
19207;SDS011;9737;59.466;18.036;2023-04-07T12:19:24;6.07;;;3.50;;
19207;SDS011;9737;59.466;18.036;2023-04-07T12:21:57;4.72;;;3.60;;
19207;SDS011;9737;59.466;18.036;2023-04-07T12:24:26;7.55;;;3.67;;
19207;SDS011;9737;59.466;18.036;2023-04-07T12:26:54;4.43;;;2.80;;
19207;SDS011;9737;59.466;18.036;2023-04-07T12:29:21;4.93;;;2.90;;
19207;SDS011;9737;59.466;18.036;2023-04-07T12:31:49;5.15;;;3.17;;
19207;SDS011;9737;59.466;18.036;2023-04-07T12:34:18;5.28;;;3.50;;
19207;SDS011;9737;59.466;18.036;2023-04-07T12:36:46;5.78;;;3.45;;
19207;SDS011;9737;59.466;18.036;2023-04-07T12:39:15;6.07;;;3.80;;
19207;SDS011;9737;59.466;18.036;2023-04-07T12:41:43;4.28;;;3.28;;
19207;SDS011;9737;59.466;18.036;2023-04-07T12:44:13;4.50;;;3.42;;
19207;SDS011;9737;59.466;18.036;2023-04-07T12:46:42;4.47;;;3.13;;
19207;SDS011;9737;59.466;18.036;2023-04-07T12:49:10;5.10;;;3.47;;
19207;SDS011;9737;59.466;18.036;2023-04-07T12:51:38;6.53;;;3.90;;
19207;SDS011;9737;59.466;18.036;2023-04-07T12:54:06;6.25;;;4.20;;
19207;SDS011;9737;59.466;18.036;2023-04-07T12:56:36;5.63;;;3.45;;
19207;SDS011;9737;59.466;18.036;2023-04-07T12:59:04;4.57;;;3.45;;
19207;SDS011;9737;59.466;18.036;2023-04-07T13:01:32;3.63;;;2.90;;
19207;SDS011;9737;59.466;18.036;2023-04-07T13:04:01;3.67;;;3.03;;
19207;SDS011;9737;59.466;18.036;2023-04-07T13:06:29;4.07;;;3.42;;
19207;SDS011;9737;59.466;18.036;2023-04-07T13:08:57;4.10;;;3.25;;
19207;SDS011;9737;59.466;18.036;2023-04-07T13:11:25;4.43;;;3.30;;
19207;SDS011;9737;59.466;18.036;2023-04-07T13:13:54;5.95;;;3.35;;
19207;SDS011;9737;59.466;18.036;2023-04-07T13:16:25;4.72;;;3.40;;
19207;SDS011;9737;59.466;18.036;2023-04-07T13:18:54;6.05;;;2.97;;
19207;SDS011;9737;59.466;18.036;2023-04-07T13:21:24;4.82;;;3.35;;
19207;SDS011;9737;59.466;18.036;2023-04-07T13:24:12;4.93;;;3.40;;
19207;SDS011;9737;59.466;18.036;2023-04-07T13:26:41;5.53;;;3.40;;
19207;SDS011;9737;59.466;18.036;2023-04-07T13:29:10;5.68;;;3.60;;
19207;SDS011;9737;59.466;18.036;2023-04-07T13:31:38;6.63;;;3.10;;
19207;SDS011;9737;59.466;18.036;2023-04-07T13:34:06;6.60;;;3.28;;
19207;SDS011;9737;59.466;18.036;2023-04-07T13:36:34;5.85;;;3.38;;
19207;SDS011;9737;59.466;18.036;2023-04-07T13:39:03;5.70;;;3.30;;
19207;SDS011;9737;59.466;18.036;2023-04-07T13:41:30;3.83;;;2.90;;
19207;SDS011;9737;59.466;18.036;2023-04-07T13:43:59;3.22;;;2.80;;
19207;SDS011;9737;59.466;18.036;2023-04-07T13:46:28;4.28;;;2.60;;
19207;SDS011;9737;59.466;18.036;2023-04-07T13:48:56;6.85;;;3.05;;
19207;SDS011;9737;59.466;18.036;2023-04-07T13:51:24;4.80;;;3.22;;
19207;SDS011;9737;59.466;18.036;2023-04-07T13:53:53;4.63;;;2.60;;
19207;SDS011;9737;59.466;18.036;2023-04-07T13:56:21;3.67;;;2.70;;
19207;SDS011;9737;59.466;18.036;2023-04-07T13:58:50;4.93;;;2.80;;
19207;SDS011;9737;59.466;18.036;2023-04-07T14:01:17;4.22;;;2.72;;
19207;SDS011;9737;59.466;18.036;2023-04-07T14:03:47;2.80;;;2.40;;
19207;SDS011;9737;59.466;18.036;2023-04-07T14:06:16;4.50;;;2.67;;
19207;SDS011;9737;59.466;18.036;2023-04-07T14:08:44;4.28;;;3.10;;
19207;SDS011;9737;59.466;18.036;2023-04-07T14:11:14;5.28;;;3.53;;
19207;SDS011;9737;59.466;18.036;2023-04-07T14:13:43;3.38;;;2.80;;
19207;SDS011;9737;59.466;18.036;2023-04-07T14:16:11;6.75;;;3.83;;
19207;SDS011;9737;59.466;18.036;2023-04-07T14:18:39;4.85;;;3.17;;
19207;SDS011;9737;59.466;18.036;2023-04-07T14:21:09;11.10;;;3.92;;
19207;SDS011;9737;59.466;18.036;2023-04-07T14:23:36;6.25;;;3.30;;
19207;SDS011;9737;59.466;18.036;2023-04-07T14:26:08;4.78;;;2.80;;
19207;SDS011;9737;59.466;18.036;2023-04-07T14:28:36;3.53;;;2.75;;
19207;SDS011;9737;59.466;18.036;2023-04-07T14:31:04;3.75;;;2.90;;
19207;SDS011;9737;59.466;18.036;2023-04-07T14:33:32;4.68;;;2.85;;
19207;SDS011;9737;59.466;18.036;2023-04-07T14:36:00;3.80;;;2.80;;
19207;SDS011;9737;59.466;18.036;2023-04-07T14:38:30;4.07;;;2.80;;
19207;SDS011;9737;59.466;18.036;2023-04-07T14:41:01;4.50;;;2.53;;
19207;SDS011;9737;59.466;18.036;2023-04-07T14:43:32;4.63;;;2.90;;
19207;SDS011;9737;59.466;18.036;2023-04-07T14:46:01;9.20;;;3.58;;
19207;SDS011;9737;59.466;18.036;2023-04-07T14:48:29;5.25;;;3.28;;
19207;SDS011;9737;59.466;18.036;2023-04-07T14:50:58;4.40;;;3.03;;
19207;SDS011;9737;59.466;18.036;2023-04-07T14:53:36;6.85;;;3.38;;
19207;SDS011;9737;59.466;18.036;2023-04-07T14:56:04;5.07;;;3.00;;
19207;SDS011;9737;59.466;18.036;2023-04-07T14:58:33;6.15;;;2.67;;
19207;SDS011;9737;59.466;18.036;2023-04-07T15:01:04;5.97;;;3.15;;
19207;SDS011;9737;59.466;18.036;2023-04-07T15:03:36;5.70;;;2.90;;
19207;SDS011;9737;59.466;18.036;2023-04-07T15:06:07;5.45;;;3.10;;
19207;SDS011;9737;59.466;18.036;2023-04-07T15:08:37;5.00;;;3.17;;
19207;SDS011;9737;59.466;18.036;2023-04-07T15:11:06;5.07;;;2.90;;